Aviation Digital Data Service (ADDS)

Output produced by METARs form (0610 UTC 25 June 2018)
found at http://www.aviationweather.gov/adds/metars/
 
MPPA 250300Z VRB03KT 9999 FEW015 BKN070 25/24 Q1010
TAF MPPA 242300Z 2500/2606 00000KT 9999 SCT018 BKN090 
     PROB30 
     TEMPO 2518/2522 16004KT 6000 TSRA SCT014CB BKN070
       
MPBO 250100Z 00000KT 9999 SCT016 BKN080 Q1012
TAF COR MPDA 242300Z 2500/2512 20006KT 9999 SCT016 BKN090 
     PROB30 
     TEMPO 2500/2504 6000 TSRA SCT014CB BKN070
       
MPMG 250300Z 30004KT 9999 FEW018CB 26/25 Q1011 NOSIG
TAF MPMG 242300Z 2500/2512 18006KT 9999 SCT016CB BKN090 
     PROB30 
     TEMPO 2500/2504 6000 TSRA
       
MPTO 250600Z 00000KT 9999 SCT018CB 25/24 Q1011 RERA RWY WET NOSIG
TAF MPTO 250400Z 2506/2612 30004KT 9999 SCT018CB SCT090 
     BECMG 2513/2517 34006KT 9000 SCT018 BKN090 
     PROB40 
     TEMPO 2518/2522 7000 TSRA SCT015CB BKN080